sensor_id;sensor_type;location;lat;lon;timestamp;P1;durP1;ratioP1;P2;durP2;ratioP2
38865;SDS011;62686;48.984;8.394;2023-06-19T00:00:48;9.80;;;6.05;;
38865;SDS011;62686;48.984;8.394;2023-06-19T00:03:16;9.38;;;6.30;;
38865;SDS011;62686;48.984;8.394;2023-06-19T00:05:44;8.02;;;6.57;;
38865;SDS011;62686;48.984;8.394;2023-06-19T00:08:12;9.45;;;6.80;;
38865;SDS011;62686;48.984;8.394;2023-06-19T00:10:41;7.65;;;5.97;;
38865;SDS011;62686;48.984;8.394;2023-06-19T00:13:09;6.75;;;6.07;;
38865;SDS011;62686;48.984;8.394;2023-06-19T00:15:37;9.40;;;6.35;;
38865;SDS011;62686;48.984;8.394;2023-06-19T00:18:06;10.13;;;6.22;;
38865;SDS011;62686;48.984;8.394;2023-06-19T00:20:36;5.95;;;5.32;;
38865;SDS011;62686;48.984;8.394;2023-06-19T00:23:05;6.30;;;5.47;;
38865;SDS011;62686;48.984;8.394;2023-06-19T00:25:37;7.20;;;5.40;;
38865;SDS011;62686;48.984;8.394;2023-06-19T00:28:05;5.65;;;5.05;;
38865;SDS011;62686;48.984;8.394;2023-06-19T00:30:39;5.35;;;4.82;;
38865;SDS011;62686;48.984;8.394;2023-06-19T00:33:09;6.22;;;4.05;;
38865;SDS011;62686;48.984;8.394;2023-06-19T00:35:37;4.63;;;4.22;;
38865;SDS011;62686;48.984;8.394;2023-06-19T00:38:07;6.45;;;4.03;;
38865;SDS011;62686;48.984;8.394;2023-06-19T00:40:35;4.18;;;3.78;;
38865;SDS011;62686;48.984;8.394;2023-06-19T00:43:03;6.07;;;4.32;;
38865;SDS011;62686;48.984;8.394;2023-06-19T00:45:32;9.48;;;4.07;;
38865;SDS011;62686;48.984;8.394;2023-06-19T00:48:00;4.80;;;3.65;;
38865;SDS011;62686;48.984;8.394;2023-06-19T00:50:30;6.38;;;3.90;;
38865;SDS011;62686;48.984;8.394;2023-06-19T00:52:59;4.15;;;3.22;;
38865;SDS011;62686;48.984;8.394;2023-06-19T00:55:30;6.63;;;3.40;;
38865;SDS011;62686;48.984;8.394;2023-06-19T00:58:00;6.20;;;3.20;;
38865;SDS011;62686;48.984;8.394;2023-06-19T01:00:29;8.25;;;3.00;;
38865;SDS011;62686;48.984;8.394;2023-06-19T01:02:57;4.50;;;2.70;;
38865;SDS011;62686;48.984;8.394;2023-06-19T01:05:26;5.07;;;2.75;;
38865;SDS011;62686;48.984;8.394;2023-06-19T01:07:57;5.55;;;2.70;;
38865;SDS011;62686;48.984;8.394;2023-06-19T01:10:28;7.82;;;2.42;;
38865;SDS011;62686;48.984;8.394;2023-06-19T01:13:06;3.65;;;2.42;;
38865;SDS011;62686;48.984;8.394;2023-06-19T01:15:38;5.18;;;2.70;;
38865;SDS011;62686;48.984;8.394;2023-06-19T01:18:07;5.53;;;2.40;;
38865;SDS011;62686;48.984;8.394;2023-06-19T01:20:37;6.68;;;2.95;;
38865;SDS011;62686;48.984;8.394;2023-06-19T01:23:08;6.22;;;3.00;;
38865;SDS011;62686;48.984;8.394;2023-06-19T01:25:37;8.63;;;2.70;;
38865;SDS011;62686;48.984;8.394;2023-06-19T01:28:06;5.40;;;2.92;;
38865;SDS011;62686;48.984;8.394;2023-06-19T01:30:37;3.25;;;2.92;;
38865;SDS011;62686;48.984;8.394;2023-06-19T01:33:09;4.35;;;2.92;;
38865;SDS011;62686;48.984;8.394;2023-06-19T01:35:43;6.22;;;3.10;;
38865;SDS011;62686;48.984;8.394;2023-06-19T01:38:14;3.13;;;2.83;;
38865;SDS011;62686;48.984;8.394;2023-06-19T01:40:43;4.68;;;3.28;;
38865;SDS011;62686;48.984;8.394;2023-06-19T01:43:14;5.88;;;3.05;;
38865;SDS011;62686;48.984;8.394;2023-06-19T01:45:43;5.90;;;3.20;;
38865;SDS011;62686;48.984;8.394;2023-06-19T01:48:11;3.83;;;3.25;;
38865;SDS011;62686;48.984;8.394;2023-06-19T01:50:41;4.75;;;3.28;;
38865;SDS011;62686;48.984;8.394;2023-06-19T01:53:14;5.88;;;3.22;;
38865;SDS011;62686;48.984;8.394;2023-06-19T01:55:43;5.63;;;3.60;;
38865;SDS011;62686;48.984;8.394;2023-06-19T01:58:12;3.70;;;3.30;;
38865;SDS011;62686;48.984;8.394;2023-06-19T02:00:40;5.43;;;3.38;;
38865;SDS011;62686;48.984;8.394;2023-06-19T02:03:08;5.57;;;3.38;;
38865;SDS011;62686;48.984;8.394;2023-06-19T02:05:36;3.85;;;3.03;;
38865;SDS011;62686;48.984;8.394;2023-06-19T02:08:06;3.40;;;3.08;;
38865;SDS011;62686;48.984;8.394;2023-06-19T02:10:35;4.80;;;3.40;;
38865;SDS011;62686;48.984;8.394;2023-06-19T02:13:04;3.63;;;3.30;;
38865;SDS011;62686;48.984;8.394;2023-06-19T02:15:32;3.53;;;3.22;;
38865;SDS011;62686;48.984;8.394;2023-06-19T02:18:00;4.13;;;3.15;;
38865;SDS011;62686;48.984;8.394;2023-06-19T02:20:29;4.85;;;3.00;;
38865;SDS011;62686;48.984;8.394;2023-06-19T02:22:57;5.30;;;3.08;;
38865;SDS011;62686;48.984;8.394;2023-06-19T02:25:25;4.32;;;3.03;;
38865;SDS011;62686;48.984;8.394;2023-06-19T02:27:55;3.78;;;3.47;;
38865;SDS011;62686;48.984;8.394;2023-06-19T02:30:23;4.45;;;3.00;;
38865;SDS011;62686;48.984;8.394;2023-06-19T02:32:52;3.17;;;2.88;;
38865;SDS011;62686;48.984;8.394;2023-06-19T02:35:20;3.40;;;3.08;;
38865;SDS011;62686;48.984;8.394;2023-06-19T02:37:48;4.30;;;3.30;;
38865;SDS011;62686;48.984;8.394;2023-06-19T02:40:16;4.45;;;3.45;;
38865;SDS011;62686;48.984;8.394;2023-06-19T02:42:45;3.55;;;2.95;;
38865;SDS011;62686;48.984;8.394;2023-06-19T02:45:15;3.25;;;2.97;;
38865;SDS011;62686;48.984;8.394;2023-06-19T02:47:43;7.85;;;3.20;;
38865;SDS011;62686;48.984;8.394;2023-06-19T02:50:12;3.25;;;2.95;;
38865;SDS011;62686;48.984;8.394;2023-06-19T02:52:40;4.10;;;3.10;;
38865;SDS011;62686;48.984;8.394;2023-06-19T02:55:08;3.00;;;2.70;;
38865;SDS011;62686;48.984;8.394;2023-06-19T02:57:36;3.78;;;2.90;;
38865;SDS011;62686;48.984;8.394;2023-06-19T03:00:05;3.28;;;2.95;;
38865;SDS011;62686;48.984;8.394;2023-06-19T03:02:37;3.58;;;3.20;;
38865;SDS011;62686;48.984;8.394;2023-06-19T03:05:09;3.80;;;3.10;;
38865;SDS011;62686;48.984;8.394;2023-06-19T03:07:38;3.80;;;3.50;;
38865;SDS011;62686;48.984;8.394;2023-06-19T03:10:06;3.88;;;3.50;;
38865;SDS011;62686;48.984;8.394;2023-06-19T03:12:35;3.53;;;3.15;;
38865;SDS011;62686;48.984;8.394;2023-06-19T03:15:04;4.00;;;3.60;;
38865;SDS011;62686;48.984;8.394;2023-06-19T03:17:33;3.85;;;3.55;;
38865;SDS011;62686;48.984;8.394;2023-06-19T03:20:03;5.28;;;3.90;;
38865;SDS011;62686;48.984;8.394;2023-06-19T03:22:32;3.97;;;3.60;;
38865;SDS011;62686;48.984;8.394;2023-06-19T03:25:00;6.50;;;3.85;;
38865;SDS011;62686;48.984;8.394;2023-06-19T03:27:29;4.18;;;3.78;;
38865;SDS011;62686;48.984;8.394;2023-06-19T03:29:57;3.72;;;3.33;;
38865;SDS011;62686;48.984;8.394;2023-06-19T03:32:26;3.67;;;3.38;;
38865;SDS011;62686;48.984;8.394;2023-06-19T03:34:55;4.00;;;3.50;;
38865;SDS011;62686;48.984;8.394;2023-06-19T03:37:25;4.05;;;3.58;;
38865;SDS011;62686;48.984;8.394;2023-06-19T03:39:53;4.63;;;3.55;;
38865;SDS011;62686;48.984;8.394;2023-06-19T03:42:22;4.07;;;3.67;;
38865;SDS011;62686;48.984;8.394;2023-06-19T03:44:50;4.85;;;3.60;;
38865;SDS011;62686;48.984;8.394;2023-06-19T03:47:18;4.22;;;3.28;;
38865;SDS011;62686;48.984;8.394;2023-06-19T03:49:46;4.05;;;3.65;;
38865;SDS011;62686;48.984;8.394;2023-06-19T03:52:17;3.88;;;3.47;;
38865;SDS011;62686;48.984;8.394;2023-06-19T03:54:56;3.60;;;3.30;;
38865;SDS011;62686;48.984;8.394;2023-06-19T03:57:40;4.75;;;3.75;;
38865;SDS011;62686;48.984;8.394;2023-06-19T04:00:11;7.00;;;3.40;;
38865;SDS011;62686;48.984;8.394;2023-06-19T04:02:42;5.07;;;3.35;;
38865;SDS011;62686;48.984;8.394;2023-06-19T04:05:18;4.55;;;3.50;;
38865;SDS011;62686;48.984;8.394;2023-06-19T04:07:49;3.90;;;3.30;;
38865;SDS011;62686;48.984;8.394;2023-06-19T04:10:24;3.30;;;3.00;;
38865;SDS011;62686;48.984;8.394;2023-06-19T04:12:59;4.28;;;3.38;;
38865;SDS011;62686;48.984;8.394;2023-06-19T04:15:30;3.40;;;3.10;;
38865;SDS011;62686;48.984;8.394;2023-06-19T04:18:08;4.18;;;3.22;;
38865;SDS011;62686;48.984;8.394;2023-06-19T04:20:44;3.72;;;3.38;;
38865;SDS011;62686;48.984;8.394;2023-06-19T04:23:24;4.10;;;3.35;;
38865;SDS011;62686;48.984;8.394;2023-06-19T04:26:09;3.72;;;3.03;;
38865;SDS011;62686;48.984;8.394;2023-06-19T04:28:58;4.72;;;3.33;;
38865;SDS011;62686;48.984;8.394;2023-06-19T04:31:59;4.75;;;2.90;;
38865;SDS011;62686;48.984;8.394;2023-06-19T04:35:10;3.42;;;3.13;;
38865;SDS011;62686;48.984;8.394;2023-06-19T04:38:12;3.42;;;3.13;;
38865;SDS011;62686;48.984;8.394;2023-06-19T04:41:14;4.05;;;3.08;;
38865;SDS011;62686;48.984;8.394;2023-06-19T04:43:42;3.25;;;2.85;;
38865;SDS011;62686;48.984;8.394;2023-06-19T04:46:10;3.55;;;3.25;;
38865;SDS011;62686;48.984;8.394;2023-06-19T04:48:38;5.47;;;3.15;;
38865;SDS011;62686;48.984;8.394;2023-06-19T04:51:07;3.30;;;3.00;;
38865;SDS011;62686;48.984;8.394;2023-06-19T04:53:35;3.72;;;3.42;;
38865;SDS011;62686;48.984;8.394;2023-06-19T04:56:04;3.15;;;2.78;;
38865;SDS011;62686;48.984;8.394;2023-06-19T04:58:34;3.35;;;2.90;;
38865;SDS011;62686;48.984;8.394;2023-06-19T05:01:02;3.55;;;2.67;;
38865;SDS011;62686;48.984;8.394;2023-06-19T05:03:30;3.55;;;2.75;;
38865;SDS011;62686;48.984;8.394;2023-06-19T05:05:59;3.40;;;2.55;;
38865;SDS011;62686;48.984;8.394;2023-06-19T05:08:27;3.50;;;3.08;;
38865;SDS011;62686;48.984;8.394;2023-06-19T05:10:55;4.20;;;2.80;;
38865;SDS011;62686;48.984;8.394;2023-06-19T05:13:24;5.78;;;3.10;;
38865;SDS011;62686;48.984;8.394;2023-06-19T05:15:53;6.65;;;2.90;;
38865;SDS011;62686;48.984;8.394;2023-06-19T05:18:22;5.20;;;2.90;;
38865;SDS011;62686;48.984;8.394;2023-06-19T05:20:51;3.58;;;2.67;;
38865;SDS011;62686;48.984;8.394;2023-06-19T05:23:19;3.10;;;2.80;;
38865;SDS011;62686;48.984;8.394;2023-06-19T05:25:47;3.50;;;3.10;;
38865;SDS011;62686;48.984;8.394;2023-06-19T05:28:15;3.17;;;2.97;;
38865;SDS011;62686;48.984;8.394;2023-06-19T05:30:44;3.83;;;3.20;;
38865;SDS011;62686;48.984;8.394;2023-06-19T05:33:14;3.97;;;2.78;;
38865;SDS011;62686;48.984;8.394;2023-06-19T05:35:42;3.40;;;3.13;;
38865;SDS011;62686;48.984;8.394;2023-06-19T05:38:17;4.93;;;3.15;;
38865;SDS011;62686;48.984;8.394;2023-06-19T05:40:45;3.00;;;2.70;;
38865;SDS011;62686;48.984;8.394;2023-06-19T05:43:14;3.45;;;2.80;;
38865;SDS011;62686;48.984;8.394;2023-06-19T05:45:42;3.97;;;2.67;;
38865;SDS011;62686;48.984;8.394;2023-06-19T05:48:10;3.05;;;2.53;;
38865;SDS011;62686;48.984;8.394;2023-06-19T05:50:40;3.83;;;2.63;;
38865;SDS011;62686;48.984;8.394;2023-06-19T05:53:08;4.22;;;2.60;;
38865;SDS011;62686;48.984;8.394;2023-06-19T05:55:37;2.55;;;2.33;;
38865;SDS011;62686;48.984;8.394;2023-06-19T05:58:05;2.83;;;2.50;;
38865;SDS011;62686;48.984;8.394;2023-06-19T06:00:34;2.72;;;2.53;;
38865;SDS011;62686;48.984;8.394;2023-06-19T06:03:02;2.90;;;2.45;;
38865;SDS011;62686;48.984;8.394;2023-06-19T06:05:31;3.65;;;2.38;;
38865;SDS011;62686;48.984;8.394;2023-06-19T06:08:00;4.25;;;2.47;;
38865;SDS011;62686;48.984;8.394;2023-06-19T06:10:29;3.42;;;2.30;;
38865;SDS011;62686;48.984;8.394;2023-06-19T06:12:57;3.72;;;2.42;;
38865;SDS011;62686;48.984;8.394;2023-06-19T06:15:25;4.70;;;2.20;;
38865;SDS011;62686;48.984;8.394;2023-06-19T06:17:53;4.07;;;2.40;;
38865;SDS011;62686;48.984;8.394;2023-06-19T06:20:22;5.05;;;2.35;;
38865;SDS011;62686;48.984;8.394;2023-06-19T06:22:50;2.83;;;2.53;;
38865;SDS011;62686;48.984;8.394;2023-06-19T06:25:20;2.75;;;2.30;;
38865;SDS011;62686;48.984;8.394;2023-06-19T06:27:48;2.60;;;2.40;;
38865;SDS011;62686;48.984;8.394;2023-06-19T06:30:16;2.75;;;2.05;;
38865;SDS011;62686;48.984;8.394;2023-06-19T06:32:45;2.67;;;1.83;;
38865;SDS011;62686;48.984;8.394;2023-06-19T06:35:14;2.95;;;1.90;;
38865;SDS011;62686;48.984;8.394;2023-06-19T06:37:43;2.35;;;1.83;;
38865;SDS011;62686;48.984;8.394;2023-06-19T06:40:12;2.00;;;1.90;;
38865;SDS011;62686;48.984;8.394;2023-06-19T06:42:42;5.15;;;2.13;;
38865;SDS011;62686;48.984;8.394;2023-06-19T06:45:10;5.72;;;2.00;;
38865;SDS011;62686;48.984;8.394;2023-06-19T06:47:39;1.95;;;1.70;;
38865;SDS011;62686;48.984;8.394;2023-06-19T06:50:07;2.63;;;1.80;;
38865;SDS011;62686;48.984;8.394;2023-06-19T06:52:37;2.00;;;1.80;;
38865;SDS011;62686;48.984;8.394;2023-06-19T06:55:06;1.50;;;1.30;;
38865;SDS011;62686;48.984;8.394;2023-06-19T06:57:34;2.25;;;1.70;;
38865;SDS011;62686;48.984;8.394;2023-06-19T07:00:05;2.97;;;1.70;;
38865;SDS011;62686;48.984;8.394;2023-06-19T07:02:37;1.77;;;1.65;;
38865;SDS011;62686;48.984;8.394;2023-06-19T07:05:06;2.05;;;1.70;;
38865;SDS011;62686;48.984;8.394;2023-06-19T07:07:35;1.80;;;1.70;;
38865;SDS011;62686;48.984;8.394;2023-06-19T07:10:03;2.33;;;2.13;;
38865;SDS011;62686;48.984;8.394;2023-06-19T07:12:32;2.15;;;1.98;;
38865;SDS011;62686;48.984;8.394;2023-06-19T07:15:00;2.95;;;1.88;;
38865;SDS011;62686;48.984;8.394;2023-06-19T07:17:30;2.00;;;1.70;;
38865;SDS011;62686;48.984;8.394;2023-06-19T07:19:58;1.90;;;1.80;;
38865;SDS011;62686;48.984;8.394;2023-06-19T07:22:27;3.88;;;2.03;;
38865;SDS011;62686;48.984;8.394;2023-06-19T07:24:55;2.05;;;1.92;;
38865;SDS011;62686;48.984;8.394;2023-06-19T07:27:23;3.50;;;2.22;;
38865;SDS011;62686;48.984;8.394;2023-06-19T07:33:00;2.35;;;1.73;;
38865;SDS011;62686;48.984;8.394;2023-06-19T07:35:28;7.47;;;2.33;;
38865;SDS011;62686;48.984;8.394;2023-06-19T07:37:57;6.88;;;2.00;;
38865;SDS011;62686;48.984;8.394;2023-06-19T07:40:25;2.80;;;2.13;;
38865;SDS011;62686;48.984;8.394;2023-06-19T07:42:54;3.20;;;2.40;;
38865;SDS011;62686;48.984;8.394;2023-06-19T07:45:22;2.72;;;2.25;;
38865;SDS011;62686;48.984;8.394;2023-06-19T07:47:53;4.53;;;2.20;;
38865;SDS011;62686;48.984;8.394;2023-06-19T07:50:23;3.00;;;2.30;;
38865;SDS011;62686;48.984;8.394;2023-06-19T07:52:52;2.70;;;2.10;;
38865;SDS011;62686;48.984;8.394;2023-06-19T07:55:21;3.15;;;2.40;;
38865;SDS011;62686;48.984;8.394;2023-06-19T07:57:49;2.45;;;2.25;;
38865;SDS011;62686;48.984;8.394;2023-06-19T08:00:18;2.92;;;2.28;;
38865;SDS011;62686;48.984;8.394;2023-06-19T08:13:48;5.47;;;2.50;;
38865;SDS011;62686;48.984;8.394;2023-06-19T08:16:17;3.40;;;2.60;;
38865;SDS011;62686;48.984;8.394;2023-06-19T08:18:45;2.65;;;2.42;;
38865;SDS011;62686;48.984;8.394;2023-06-19T08:26:45;7.80;;;2.60;;
38865;SDS011;62686;48.984;8.394;2023-06-19T08:29:18;2.72;;;2.53;;
38865;SDS011;62686;48.984;8.394;2023-06-19T08:31:47;3.50;;;2.60;;
38865;SDS011;62686;48.984;8.394;2023-06-19T08:34:16;3.72;;;2.58;;
38865;SDS011;62686;48.984;8.394;2023-06-19T08:36:44;3.40;;;2.75;;
38865;SDS011;62686;48.984;8.394;2023-06-19T08:39:12;4.07;;;2.70;;
38865;SDS011;62686;48.984;8.394;2023-06-19T08:41:41;4.55;;;2.90;;
38865;SDS011;62686;48.984;8.394;2023-06-19T08:46:53;2.90;;;2.60;;
38865;SDS011;62686;48.984;8.394;2023-06-19T08:49:22;5.07;;;2.70;;
38865;SDS011;62686;48.984;8.394;2023-06-19T08:51:51;3.15;;;2.50;;
38865;SDS011;62686;48.984;8.394;2023-06-19T08:54:19;4.60;;;2.75;;
38865;SDS011;62686;48.984;8.394;2023-06-19T08:56:47;4.40;;;2.70;;
38865;SDS011;62686;48.984;8.394;2023-06-19T08:59:16;2.65;;;2.20;;
38865;SDS011;62686;48.984;8.394;2023-06-19T09:05:19;2.72;;;2.30;;
38865;SDS011;62686;48.984;8.394;2023-06-19T09:07:54;2.50;;;2.30;;
38865;SDS011;62686;48.984;8.394;2023-06-19T09:10:23;2.80;;;2.40;;
38865;SDS011;62686;48.984;8.394;2023-06-19T09:18:14;19.88;;;5.57;;
38865;SDS011;62686;48.984;8.394;2023-06-19T09:23:19;3.30;;;2.33;;
38865;SDS011;62686;48.984;8.394;2023-06-19T09:25:48;3.40;;;2.38;;
38865;SDS011;62686;48.984;8.394;2023-06-19T09:28:18;3.97;;;2.85;;
38865;SDS011;62686;48.984;8.394;2023-06-19T09:30:51;2.75;;;2.35;;
38865;SDS011;62686;48.984;8.394;2023-06-19T09:33:20;2.83;;;2.50;;
38865;SDS011;62686;48.984;8.394;2023-06-19T09:38:33;5.35;;;2.35;;
38865;SDS011;62686;48.984;8.394;2023-06-19T09:41:04;4.72;;;2.47;;
38865;SDS011;62686;48.984;8.394;2023-06-19T09:43:34;3.42;;;2.58;;
38865;SDS011;62686;48.984;8.394;2023-06-19T09:46:16;2.85;;;2.58;;
38865;SDS011;62686;48.984;8.394;2023-06-19T09:55:15;2.58;;;2.38;;
38865;SDS011;62686;48.984;8.394;2023-06-19T09:57:44;3.70;;;2.50;;
38865;SDS011;62686;48.984;8.394;2023-06-19T10:00:15;4.10;;;2.70;;
38865;SDS011;62686;48.984;8.394;2023-06-19T10:02:51;3.63;;;2.22;;
38865;SDS011;62686;48.984;8.394;2023-06-19T10:05:28;3.63;;;2.47;;
38865;SDS011;62686;48.984;8.394;2023-06-19T10:08:09;3.60;;;2.28;;
38865;SDS011;62686;48.984;8.394;2023-06-19T11:28:28;3.70;;;2.60;;
38865;SDS011;62686;48.984;8.394;2023-06-19T11:30:59;3.97;;;2.88;;
38865;SDS011;62686;48.984;8.394;2023-06-19T11:33:29;4.35;;;2.60;;
38865;SDS011;62686;48.984;8.394;2023-06-19T11:36:00;4.18;;;2.70;;
38865;SDS011;62686;48.984;8.394;2023-06-19T11:38:29;3.17;;;2.40;;
38865;SDS011;62686;48.984;8.394;2023-06-19T11:40:57;3.70;;;2.92;;
38865;SDS011;62686;48.984;8.394;2023-06-19T11:43:25;2.55;;;2.30;;
38865;SDS011;62686;48.984;8.394;2023-06-19T11:46:00;3.35;;;2.70;;
38865;SDS011;62686;48.984;8.394;2023-06-19T11:48:30;5.38;;;2.60;;
38865;SDS011;62686;48.984;8.394;2023-06-19T11:50:58;4.65;;;2.90;;
38865;SDS011;62686;48.984;8.394;2023-06-19T11:53:28;3.95;;;2.53;;
38865;SDS011;62686;48.984;8.394;2023-06-19T11:55:56;2.63;;;2.42;;
38865;SDS011;62686;48.984;8.394;2023-06-19T11:58:24;4.35;;;2.50;;
38865;SDS011;62686;48.984;8.394;2023-06-19T12:00:54;3.75;;;2.60;;
38865;SDS011;62686;48.984;8.394;2023-06-19T12:03:23;2.60;;;2.40;;
38865;SDS011;62686;48.984;8.394;2023-06-19T12:05:52;2.38;;;2.17;;
38865;SDS011;62686;48.984;8.394;2023-06-19T12:08:20;2.47;;;2.28;;
38865;SDS011;62686;48.984;8.394;2023-06-19T12:10:49;2.78;;;2.40;;
38865;SDS011;62686;48.984;8.394;2023-06-19T12:13:18;3.97;;;2.50;;
38865;SDS011;62686;48.984;8.394;2023-06-19T12:15:46;5.28;;;2.33;;
38865;SDS011;62686;48.984;8.394;2023-06-19T12:18:16;2.13;;;2.03;;
38865;SDS011;62686;48.984;8.394;2023-06-19T12:20:44;3.03;;;2.20;;
38865;SDS011;62686;48.984;8.394;2023-06-19T12:23:12;2.95;;;2.05;;
38865;SDS011;62686;48.984;8.394;2023-06-19T12:25:41;2.55;;;2.35;;
38865;SDS011;62686;48.984;8.394;2023-06-19T12:28:09;5.00;;;2.55;;
38865;SDS011;62686;48.984;8.394;2023-06-19T12:30:38;2.70;;;2.50;;
38865;SDS011;62686;48.984;8.394;2023-06-19T12:33:06;4.93;;;2.50;;
38865;SDS011;62686;48.984;8.394;2023-06-19T12:35:38;4.28;;;2.30;;
38865;SDS011;62686;48.984;8.394;2023-06-19T12:38:07;3.78;;;2.75;;
38865;SDS011;62686;48.984;8.394;2023-06-19T12:40:36;4.43;;;2.72;;
38865;SDS011;62686;48.984;8.394;2023-06-19T12:43:04;2.90;;;2.50;;
38865;SDS011;62686;48.984;8.394;2023-06-19T12:45:33;4.40;;;2.30;;
38865;SDS011;62686;48.984;8.394;2023-06-19T12:48:02;2.65;;;2.40;;
38865;SDS011;62686;48.984;8.394;2023-06-19T12:50:30;3.22;;;2.38;;
38865;SDS011;62686;48.984;8.394;2023-06-19T12:53:00;2.72;;;2.40;;
38865;SDS011;62686;48.984;8.394;2023-06-19T12:55:28;2.65;;;2.45;;
38865;SDS011;62686;48.984;8.394;2023-06-19T12:57:57;2.50;;;2.30;;
38865;SDS011;62686;48.984;8.394;2023-06-19T13:00:25;4.25;;;2.50;;
38865;SDS011;62686;48.984;8.394;2023-06-19T13:02:53;5.10;;;2.22;;
38865;SDS011;62686;48.984;8.394;2023-06-19T13:05:22;3.80;;;2.25;;
38865;SDS011;62686;48.984;8.394;2023-06-19T13:07:50;2.38;;;2.17;;
38865;SDS011;62686;48.984;8.394;2023-06-19T13:10:20;3.80;;;2.28;;
38865;SDS011;62686;48.984;8.394;2023-06-19T13:12:48;3.50;;;2.15;;
38865;SDS011;62686;48.984;8.394;2023-06-19T13:15:17;3.67;;;2.10;;
38865;SDS011;62686;48.984;8.394;2023-06-19T13:17:45;2.53;;;2.33;;
38865;SDS011;62686;48.984;8.394;2023-06-19T13:20:13;2.35;;;2.10;;
38865;SDS011;62686;48.984;8.394;2023-06-19T13:22:42;30.30;;;3.85;;
38865;SDS011;62686;48.984;8.394;2023-06-19T13:25:10;4.65;;;2.20;;
38865;SDS011;62686;48.984;8.394;2023-06-19T13:27:40;30.23;;;4.05;;
38865;SDS011;62686;48.984;8.394;2023-06-19T13:30:08;3.58;;;2.15;;
38865;SDS011;62686;48.984;8.394;2023-06-19T13:32:37;3.13;;;2.17;;
38865;SDS011;62686;48.984;8.394;2023-06-19T13:35:06;3.08;;;2.38;;
38865;SDS011;62686;48.984;8.394;2023-06-19T13:37:36;4.32;;;2.40;;
38865;SDS011;62686;48.984;8.394;2023-06-19T13:40:05;16.23;;;3.17;;
38865;SDS011;62686;48.984;8.394;2023-06-19T13:42:35;4.53;;;2.10;;
38865;SDS011;62686;48.984;8.394;2023-06-19T13:45:05;3.17;;;2.30;;
38865;SDS011;62686;48.984;8.394;2023-06-19T13:47:34;3.45;;;2.60;;
38865;SDS011;62686;48.984;8.394;2023-06-19T13:50:02;2.60;;;2.40;;
38865;SDS011;62686;48.984;8.394;2023-06-19T13:52:31;2.72;;;1.90;;
38865;SDS011;62686;48.984;8.394;2023-06-19T13:55:00;3.05;;;2.40;;
38865;SDS011;62686;48.984;8.394;2023-06-19T13:57:29;2.60;;;2.33;;
38865;SDS011;62686;48.984;8.394;2023-06-19T13:59:57;2.40;;;2.20;;
38865;SDS011;62686;48.984;8.394;2023-06-19T14:02:26;2.85;;;2.08;;
38865;SDS011;62686;48.984;8.394;2023-06-19T14:04:55;2.25;;;2.03;;
38865;SDS011;62686;48.984;8.394;2023-06-19T14:07:23;2.92;;;2.20;;
38865;SDS011;62686;48.984;8.394;2023-06-19T14:09:52;1.88;;;1.77;;
38865;SDS011;62686;48.984;8.394;2023-06-19T14:12:21;2.40;;;2.17;;
38865;SDS011;62686;48.984;8.394;2023-06-19T14:14:49;2.30;;;2.00;;
38865;SDS011;62686;48.984;8.394;2023-06-19T14:17:18;2.08;;;1.90;;
38865;SDS011;62686;48.984;8.394;2023-06-19T14:19:47;2.35;;;2.00;;
38865;SDS011;62686;48.984;8.394;2023-06-19T14:22:17;4.13;;;2.42;;
38865;SDS011;62686;48.984;8.394;2023-06-19T14:24:45;3.47;;;2.20;;
38865;SDS011;62686;48.984;8.394;2023-06-19T14:27:13;2.85;;;2.50;;
38865;SDS011;62686;48.984;8.394;2023-06-19T14:29:42;5.05;;;2.70;;
38865;SDS011;62686;48.984;8.394;2023-06-19T14:32:10;5.07;;;2.17;;
38865;SDS011;62686;48.984;8.394;2023-06-19T14:34:39;2.30;;;2.10;;
38865;SDS011;62686;48.984;8.394;2023-06-19T14:37:09;3.00;;;2.10;;
38865;SDS011;62686;48.984;8.394;2023-06-19T14:39:38;4.05;;;2.40;;
38865;SDS011;62686;48.984;8.394;2023-06-19T14:42:06;2.58;;;2.10;;
38865;SDS011;62686;48.984;8.394;2023-06-19T14:44:35;2.15;;;1.95;;
38865;SDS011;62686;48.984;8.394;2023-06-19T14:47:03;2.42;;;2.22;;
38865;SDS011;62686;48.984;8.394;2023-06-19T14:49:33;4.00;;;2.17;;
38865;SDS011;62686;48.984;8.394;2023-06-19T14:52:01;4.38;;;2.10;;
38865;SDS011;62686;48.984;8.394;2023-06-19T14:54:31;2.58;;;2.10;;
38865;SDS011;62686;48.984;8.394;2023-06-19T14:56:59;3.42;;;2.42;;
38865;SDS011;62686;48.984;8.394;2023-06-19T14:59:27;3.67;;;2.40;;
38865;SDS011;62686;48.984;8.394;2023-06-19T15:01:55;2.75;;;2.30;;
38865;SDS011;62686;48.984;8.394;2023-06-19T15:04:24;2.60;;;2.20;;
38865;SDS011;62686;48.984;8.394;2023-06-19T15:06:52;3.78;;;2.85;;
38865;SDS011;62686;48.984;8.394;2023-06-19T15:09:25;4.55;;;2.20;;
38865;SDS011;62686;48.984;8.394;2023-06-19T15:11:55;2.80;;;2.60;;
38865;SDS011;62686;48.984;8.394;2023-06-19T15:14:23;4.05;;;2.72;;
38865;SDS011;62686;48.984;8.394;2023-06-19T15:16:52;3.63;;;2.55;;
38865;SDS011;62686;48.984;8.394;2023-06-19T15:19:20;3.35;;;2.53;;
38865;SDS011;62686;48.984;8.394;2023-06-19T15:21:50;3.60;;;2.85;;
38865;SDS011;62686;48.984;8.394;2023-06-19T15:24:18;4.43;;;2.90;;
38865;SDS011;62686;48.984;8.394;2023-06-19T15:26:46;4.53;;;2.80;;
38865;SDS011;62686;48.984;8.394;2023-06-19T15:29:16;4.40;;;3.00;;
38865;SDS011;62686;48.984;8.394;2023-06-19T15:31:45;3.22;;;2.92;;
38865;SDS011;62686;48.984;8.394;2023-06-19T15:34:13;3.70;;;3.17;;
38865;SDS011;62686;48.984;8.394;2023-06-19T15:36:41;4.07;;;3.20;;
38865;SDS011;62686;48.984;8.394;2023-06-19T15:39:10;3.20;;;2.90;;
38865;SDS011;62686;48.984;8.394;2023-06-19T15:41:38;3.22;;;2.47;;
38865;SDS011;62686;48.984;8.394;2023-06-19T15:44:06;3.42;;;2.60;;
38865;SDS011;62686;48.984;8.394;2023-06-19T15:46:36;4.63;;;2.70;;
38865;SDS011;62686;48.984;8.394;2023-06-19T15:49:04;4.28;;;2.65;;
38865;SDS011;62686;48.984;8.394;2023-06-19T15:51:34;4.57;;;2.70;;
38865;SDS011;62686;48.984;8.394;2023-06-19T15:54:02;5.68;;;2.97;;
38865;SDS011;62686;48.984;8.394;2023-06-19T15:56:30;3.33;;;2.60;;
38865;SDS011;62686;48.984;8.394;2023-06-19T15:58:59;3.90;;;3.03;;
38865;SDS011;62686;48.984;8.394;2023-06-19T16:01:27;3.65;;;2.90;;
38865;SDS011;62686;48.984;8.394;2023-06-19T16:03:57;5.18;;;3.03;;
38865;SDS011;62686;48.984;8.394;2023-06-19T16:06:25;3.63;;;2.60;;
38865;SDS011;62686;48.984;8.394;2023-06-19T16:08:53;2.85;;;2.65;;
38865;SDS011;62686;48.984;8.394;2023-06-19T16:11:23;2.90;;;2.65;;
38865;SDS011;62686;48.984;8.394;2023-06-19T16:13:51;2.95;;;2.40;;
38865;SDS011;62686;48.984;8.394;2023-06-19T16:16:19;2.50;;;2.30;;
38865;SDS011;62686;48.984;8.394;2023-06-19T16:18:48;2.90;;;2.60;;
38865;SDS011;62686;48.984;8.394;2023-06-19T16:21:17;3.13;;;2.47;;
38865;SDS011;62686;48.984;8.394;2023-06-19T16:23:45;3.65;;;2.63;;
38865;SDS011;62686;48.984;8.394;2023-06-19T16:26:13;3.17;;;2.35;;
38865;SDS011;62686;48.984;8.394;2023-06-19T16:28:42;3.00;;;2.63;;
38865;SDS011;62686;48.984;8.394;2023-06-19T16:31:11;3.00;;;2.70;;
38865;SDS011;62686;48.984;8.394;2023-06-19T16:33:39;3.25;;;2.70;;
38865;SDS011;62686;48.984;8.394;2023-06-19T16:36:08;2.65;;;2.45;;
38865;SDS011;62686;48.984;8.394;2023-06-19T16:38:39;2.50;;;2.30;;
38865;SDS011;62686;48.984;8.394;2023-06-19T16:41:07;2.88;;;2.42;;
38865;SDS011;62686;48.984;8.394;2023-06-19T16:43:35;4.20;;;2.70;;
38865;SDS011;62686;48.984;8.394;2023-06-19T16:46:04;3.28;;;2.50;;
38865;SDS011;62686;48.984;8.394;2023-06-19T16:48:32;2.92;;;2.63;;
38865;SDS011;62686;48.984;8.394;2023-06-19T16:51:01;4.55;;;2.88;;
38865;SDS011;62686;48.984;8.394;2023-06-19T16:53:30;2.63;;;2.42;;
38865;SDS011;62686;48.984;8.394;2023-06-19T16:56:00;3.00;;;2.70;;
38865;SDS011;62686;48.984;8.394;2023-06-19T16:58:28;3.22;;;2.90;;
38865;SDS011;62686;48.984;8.394;2023-06-19T17:00:56;4.38;;;2.80;;
38865;SDS011;62686;48.984;8.394;2023-06-19T17:03:25;3.47;;;3.17;;